Time;durP1;ratioP1;P1;durP2;ratioP2;P2;SDS_P1;SDS_P2;PMS_P1;PMS_P2;Temp;Humidity;BMP_temperature;BMP_pressure;BME280_temperature;BME280_humidity;BME280_pressure;Samples;Min_cycle;Max_cycle;Signal;HPM_P1;HPM_P2
2022/11/10 00:00:40;;;;;;;119.85;33.15;;;10.00;99.90;;;;;;5083179;28;20063;-77
2022/11/10 00:03:27;;;;;;;143.13;35.38;;;10.00;99.90;;;;;;5074174;28;20597;-77
2022/11/10 00:06:13;;;;;;;133.55;34.25;;;10.00;99.90;;;;;;5078647;28;20438;-77
2022/11/10 00:08:58;;;;;;;125.25;34.08;;;10.00;99.90;;;;;;5092633;28;20051;-77
2022/11/10 00:11:44;;;;;;;151.00;36.53;;;10.00;99.90;;;;;;5079193;28;21746;-77
2022/11/10 00:17:35;;;;;;;130.32;34.63;;;10.00;99.90;;;;;;5081230;28;20287;-77
2022/11/10 00:20:20;;;;;;;127.32;32.10;;;10.00;99.90;;;;;;5082189;28;20051;-77
2022/11/10 00:23:06;;;;;;;111.70;31.45;;;10.00;99.90;;;;;;5081877;28;20040;-77
2022/11/10 00:25:51;;;;;;;125.13;31.70;;;10.00;99.90;;;;;;5080902;28;20044;-77
2022/11/10 00:28:37;;;;;;;124.15;32.85;;;10.00;99.90;;;;;;5078241;28;20055;-77
2022/11/10 00:31:23;;;;;;;112.88;34.20;;;10.00;99.90;;;;;;5080172;28;20518;-77
2022/11/10 00:34:14;;;;;;;127.40;33.30;;;10.10;99.90;;;;;;5079682;28;20099;-77
2022/11/10 00:37:00;;;;;;;127.18;32.45;;;10.00;99.90;;;;;;5081779;28;20067;-77
2022/11/10 00:39:45;;;;;;;118.75;34.63;;;10.00;99.90;;;;;;5079819;28;20044;-77
2022/11/10 00:42:31;;;;;;;124.22;35.50;;;10.10;99.90;;;;;;5077604;28;20055;-77
2022/11/10 00:45:16;;;;;;;145.95;36.30;;;10.10;99.90;;;;;;5084535;28;20178;-77
2022/11/10 00:48:02;;;;;;;138.98;38.10;;;10.00;99.90;;;;;;5079888;28;20047;-77
2022/11/10 00:50:47;;;;;;;145.35;36.50;;;10.00;99.90;;;;;;5079922;28;20513;-77
2022/11/10 00:53:33;;;;;;;130.55;33.67;;;10.00;99.90;;;;;;5080541;28;20062;-77
2022/11/10 00:56:20;;;;;;;137.13;35.63;;;10.00;99.90;;;;;;5082757;28;20833;-77
2022/11/10 00:59:06;;;;;;;137.98;33.78;;;10.00;99.90;;;;;;5077263;28;20052;-77
2022/11/10 01:01:51;;;;;;;141.20;37.35;;;10.00;99.90;;;;;;5074717;28;20052;-77
2022/11/10 01:04:37;;;;;;;126.45;31.63;;;10.10;99.90;;;;;;5085585;28;20955;-77
2022/11/10 01:07:23;;;;;;;127.85;33.70;;;10.10;99.90;;;;;;5078149;28;20506;-77
2022/11/10 01:10:08;;;;;;;146.45;37.70;;;10.00;99.90;;;;;;5085960;28;20521;-75
2022/11/10 01:12:54;;;;;;;128.00;31.95;;;10.10;99.90;;;;;;5077480;28;20058;-75
2022/11/10 01:15:41;;;;;;;145.57;39.05;;;10.10;99.90;;;;;;5079873;28;20051;-75
2022/11/10 01:18:26;;;;;;;155.52;37.05;;;10.10;99.90;;;;;;5082414;28;20169;-75
2022/11/10 01:21:12;;;;;;;130.63;35.50;;;10.10;99.90;;;;;;5082222;28;20052;-75
2022/11/10 01:23:58;;;;;;;144.93;33.95;;;10.10;99.90;;;;;;5086154;28;20058;-76
2022/11/10 01:26:44;;;;;;;129.10;32.92;;;10.10;99.90;;;;;;5088733;28;20050;-76
2022/11/10 01:29:30;;;;;;;132.93;35.95;;;10.10;99.90;;;;;;5084785;28;20043;-76
2022/11/10 01:32:15;;;;;;;124.88;33.75;;;10.10;99.90;;;;;;5086123;28;20051;-76
2022/11/10 01:35:00;;;;;;;121.25;31.77;;;10.10;99.90;;;;;;5086595;28;20050;-76
2022/11/10 01:37:46;;;;;;;123.25;35.40;;;10.10;99.90;;;;;;5079883;28;20062;-75
2022/11/10 01:40:31;;;;;;;128.88;32.65;;;10.10;99.90;;;;;;5086618;28;20125;-75
2022/11/10 01:43:17;;;;;;;121.32;33.40;;;10.10;99.90;;;;;;5084982;28;20170;-75
2022/11/10 01:46:05;;;;;;;121.15;32.38;;;10.10;99.90;;;;;;5082132;28;20077;-75
2022/11/10 01:48:56;;;;;;;119.13;32.53;;;10.10;99.90;;;;;;5080993;28;20402;-75
2022/11/10 01:52:12;;;;;;;125.05;32.10;;;10.10;99.90;;;;;;5089595;28;20052;-75
2022/11/10 01:54:57;;;;;;;121.35;31.88;;;10.10;99.90;;;;;;5081752;28;20055;-75
2022/11/10 01:57:44;;;;;;;120.45;32.17;;;10.10;99.90;;;;;;5082140;28;20580;-75
2022/11/10 02:00:30;;;;;;;117.80;32.03;;;10.10;99.90;;;;;;5081642;28;20059;-75
2022/11/10 02:03:29;;;;;;;125.60;33.00;;;10.10;99.90;;;;;;5076404;28;20179;-75
2022/11/10 02:06:18;;;;;;;136.95;35.03;;;10.10;99.90;;;;;;5081960;28;20078;-75
2022/11/10 02:09:04;;;;;;;123.05;32.75;;;10.10;99.90;;;;;;5077314;28;20403;-75
2022/11/10 02:11:52;;;;;;;111.60;30.67;;;10.10;99.90;;;;;;5079589;28;20047;-75
2022/11/10 02:14:38;;;;;;;129.73;33.25;;;10.10;99.90;;;;;;5078834;28;20250;-75
2022/11/10 02:17:23;;;;;;;127.53;33.80;;;10.10;99.90;;;;;;5082775;28;20046;-75
2022/11/10 02:20:11;;;;;;;112.80;31.52;;;10.10;99.90;;;;;;5080629;28;20510;-75
2022/11/10 02:22:56;;;;;;;117.72;32.72;;;10.10;99.90;;;;;;5081600;28;20050;-75
2022/11/10 02:25:42;;;;;;;137.90;35.88;;;10.10;99.90;;;;;;5078121;28;20044;-75
2022/11/10 02:28:32;;;;;;;139.95;36.10;;;10.20;99.90;;;;;;5079953;28;20043;-75
2022/11/10 02:31:18;;;;;;;123.35;33.28;;;10.10;99.90;;;;;;5087494;28;20102;-75
2022/11/10 02:34:03;;;;;;;133.15;33.95;;;10.10;99.90;;;;;;5079853;28;21635;-75
2022/11/10 02:36:49;;;;;;;132.25;34.17;;;10.10;99.90;;;;;;5080558;28;20070;-75
2022/11/10 02:39:35;;;;;;;144.00;34.42;;;10.20;99.90;;;;;;5083413;28;20046;-76
2022/11/10 02:42:21;;;;;;;150.85;35.05;;;10.20;99.90;;;;;;5079789;28;20510;-76
2022/11/10 02:45:07;;;;;;;138.60;32.80;;;10.10;99.90;;;;;;5083822;28;20055;-76
2022/11/10 02:47:53;;;;;;;139.52;34.22;;;10.20;99.90;;;;;;5090700;28;20105;-76
2022/11/10 02:50:39;;;;;;;134.23;33.35;;;10.20;99.90;;;;;;5078259;28;20071;-76
2022/11/10 02:53:24;;;;;;;139.68;37.95;;;10.10;99.90;;;;;;5084268;28;20059;-76
2022/11/10 02:56:10;;;;;;;127.22;35.08;;;10.10;99.90;;;;;;5083403;28;20055;-76
2022/11/10 02:58:56;;;;;;;152.52;36.28;;;10.10;99.90;;;;;;5078248;28;20097;-76
2022/11/10 03:01:42;;;;;;;147.32;35.88;;;10.20;99.90;;;;;;5080035;28;20051;-76
2022/11/10 03:04:28;;;;;;;145.20;35.55;;;10.10;99.90;;;;;;5079539;28;20481;-76
2022/11/10 03:07:13;;;;;;;161.65;35.78;;;10.10;99.90;;;;;;5082280;28;20128;-76
2022/11/10 03:09:59;;;;;;;135.27;33.30;;;10.10;99.90;;;;;;5081695;28;20051;-75
2022/11/10 03:12:44;;;;;;;149.65;35.20;;;10.10;99.90;;;;;;5080701;28;20407;-75
2022/11/10 03:15:30;;;;;;;147.40;35.40;;;10.20;99.90;;;;;;5079088;28;20545;-75
2022/11/10 03:18:16;;;;;;;183.10;38.55;;;10.10;99.90;;;;;;5085493;28;20047;-75
2022/11/10 03:21:01;;;;;;;160.23;37.20;;;10.10;99.90;;;;;;5083811;28;20104;-75
2022/11/10 03:23:47;;;;;;;156.50;33.97;;;10.20;99.90;;;;;;5075841;28;20490;-75
2022/11/10 03:26:33;;;;;;;132.48;31.27;;;10.20;99.90;;;;;;5081745;28;20608;-75
2022/11/10 03:29:18;;;;;;;146.20;34.08;;;10.10;99.90;;;;;;5082565;28;20090;-75
2022/11/10 03:32:04;;;;;;;146.18;37.10;;;10.20;99.90;;;;;;5079978;28;20085;-75
2022/11/10 03:34:49;;;;;;;137.88;32.17;;;10.20;99.90;;;;;;5082553;28;20055;-75
2022/11/10 03:37:35;;;;;;;149.93;34.35;;;10.10;99.90;;;;;;5076887;28;20063;-75
2022/11/10 03:40:20;;;;;;;148.57;34.35;;;10.20;99.90;;;;;;5081039;28;20051;-76
2022/11/10 03:43:06;;;;;;;143.75;33.38;;;10.20;99.90;;;;;;5078595;28;20059;-76
2022/11/10 03:45:51;;;;;;;126.90;33.95;;;10.20;99.90;;;;;;5075447;28;20063;-76
2022/11/10 03:48:37;;;;;;;136.93;33.30;;;10.10;99.90;;;;;;5082521;28;20071;-76
2022/11/10 03:51:22;;;;;;;142.40;34.95;;;10.20;99.90;;;;;;5082546;28;20438;-75
2022/11/10 03:54:08;;;;;;;129.98;33.35;;;10.20;99.90;;;;;;5079083;28;20058;-75
2022/11/10 03:56:54;;;;;;;137.23;33.33;;;10.20;99.90;;;;;;5081689;28;20055;-75
2022/11/10 03:59:39;;;;;;;134.52;31.50;;;10.20;99.90;;;;;;5077074;28;20576;-75
2022/11/10 04:02:25;;;;;;;135.15;31.70;;;10.20;99.90;;;;;;5078592;28;20521;-75
2022/11/10 04:17:30;;;;;;;114.28;28.40;;;10.20;99.90;;;;;;5076558;28;20074;-75
2022/11/10 04:20:16;;;;;;;125.47;33.05;;;10.20;99.90;;;;;;5072993;28;20093;-75
2022/11/10 04:23:35;;;;;;;124.90;31.92;;;10.20;99.90;;;;;;5081318;28;20873;-75
2022/11/10 04:26:29;;;;;;;124.22;29.75;;;10.20;99.90;;;;;;5075167;28;20051;-75
2022/11/10 04:29:18;;;;;;;132.88;33.25;;;10.20;99.90;;;;;;5084200;28;20050;-75
2022/11/10 04:32:04;;;;;;;131.07;35.00;;;10.20;99.90;;;;;;5078840;28;20047;-75
2022/11/10 04:34:49;;;;;;;122.22;32.25;;;10.10;99.90;;;;;;5075220;28;20063;-75
2022/11/10 04:37:35;;;;;;;117.05;31.83;;;10.10;99.90;;;;;;5073209;28;20174;-75
2022/11/10 04:40:20;;;;;;;118.88;30.33;;;10.10;99.90;;;;;;5074284;28;20407;-76
2022/11/10 04:43:06;;;;;;;114.53;31.15;;;10.10;99.90;;;;;;5085581;28;20070;-75
2022/11/10 04:45:52;;;;;;;115.07;29.33;;;10.10;99.90;;;;;;5085736;28;20139;-75
2022/11/10 04:48:38;;;;;;;105.50;29.52;;;10.10;99.90;;;;;;5077515;28;20055;-75
2022/11/10 04:51:26;;;;;;;122.35;30.75;;;10.10;99.90;;;;;;5075266;28;20097;-75
2022/11/10 04:54:12;;;;;;;118.90;30.55;;;10.10;99.90;;;;;;5080258;28;20052;-75
2022/11/10 04:56:58;;;;;;;115.47;28.52;;;10.10;99.90;;;;;;5078742;28;20052;-75
2022/11/10 04:59:44;;;;;;;116.10;28.08;;;10.00;99.90;;;;;;5082131;28;20051;-75
2022/11/10 05:02:29;;;;;;;120.78;30.83;;;10.00;99.90;;;;;;5079171;28;20052;-75
2022/11/10 05:05:21;;;;;;;114.82;29.95;;;10.00;99.90;;;;;;5073866;28;20129;-75
2022/11/10 05:08:07;;;;;;;117.80;30.00;;;10.00;99.90;;;;;;5072658;28;20059;-75
2022/11/10 05:10:53;;;;;;;124.38;31.48;;;10.00;99.90;;;;;;5081827;28;20048;-75
2022/11/10 05:13:39;;;;;;;121.72;32.95;;;10.00;99.90;;;;;;5075913;28;20772;-75
2022/11/10 05:16:25;;;;;;;126.75;30.58;;;10.00;99.90;;;;;;5078975;28;20055;-75
2022/11/10 05:19:11;;;;;;;116.00;30.95;;;10.00;99.90;;;;;;5078799;28;20052;-75
2022/11/10 05:21:57;;;;;;;119.25;32.95;;;10.00;99.90;;;;;;5076258;28;20048;-75
2022/11/10 05:24:42;;;;;;;116.78;31.73;;;10.10;99.90;;;;;;5075903;28;20050;-75
2022/11/10 05:27:28;;;;;;;116.28;31.20;;;10.10;99.90;;;;;;5080882;28;20051;-77
2022/11/10 05:30:14;;;;;;;120.82;31.92;;;10.00;99.90;;;;;;5073831;28;20051;-77
2022/11/10 05:33:00;;;;;;;108.25;29.48;;;10.00;99.90;;;;;;5085128;28;20407;-77
2022/11/10 05:35:48;;;;;;;106.43;28.67;;;10.10;99.90;;;;;;5083938;28;20116;-77
2022/11/10 05:38:33;;;;;;;107.72;30.60;;;10.00;99.90;;;;;;5084833;28;20050;-77
2022/11/10 05:41:26;;;;;;;114.60;29.95;;;10.10;99.90;;;;;;5078058;28;20457;-77
2022/11/10 05:44:12;;;;;;;98.72;29.98;;;10.10;99.90;;;;;;5073479;28;20044;-77
2022/11/10 05:46:57;;;;;;;106.32;29.83;;;10.10;99.90;;;;;;5074431;28;20044;-77
2022/11/10 05:49:43;;;;;;;103.47;28.98;;;10.00;99.90;;;;;;5077485;28;20116;-77
2022/11/10 05:52:29;;;;;;;103.93;31.25;;;10.00;99.90;;;;;;5075126;28;20418;-77
2022/11/10 05:55:17;;;;;;;102.65;30.02;;;10.10;99.90;;;;;;5079480;28;20071;-77
2022/11/10 05:58:03;;;;;;;108.40;30.70;;;10.10;99.90;;;;;;5078866;28;20458;-76
2022/11/10 06:00:48;;;;;;;102.28;29.67;;;10.00;99.90;;;;;;5081893;28;20052;-76
2022/11/10 06:03:34;;;;;;;108.28;30.50;;;10.00;99.90;;;;;;5086106;28;20127;-76
2022/11/10 06:06:21;;;;;;;99.28;29.35;;;10.10;99.90;;;;;;5082170;28;20046;-76
2022/11/10 06:09:07;;;;;;;107.78;30.20;;;10.10;99.90;;;;;;5080370;28;20059;-76
2022/11/10 06:11:53;;;;;;;106.32;30.23;;;10.10;99.90;;;;;;5082443;28;20048;-76
2022/11/10 06:14:39;;;;;;;102.50;29.58;;;10.10;99.90;;;;;;5085376;28;20066;-76
2022/11/10 06:17:25;;;;;;;96.55;28.90;;;10.10;99.90;;;;;;5086754;28;20051;-75
2022/11/10 06:20:12;;;;;;;149.60;52.58;;;10.10;99.90;;;;;;5080670;28;20129;-75
2022/11/10 06:23:00;;;;;;;179.30;59.88;;;10.10;99.90;;;;;;5081766;28;20064;-75
2022/11/10 06:25:45;;;;;;;190.38;67.07;;;10.10;99.90;;;;;;5084408;28;20055;-75
2022/11/10 06:28:31;;;;;;;168.52;59.47;;;10.20;99.90;;;;;;5086350;28;20043;-75
2022/11/10 06:31:16;;;;;;;139.93;46.63;;;10.20;99.90;;;;;;5081717;28;20097;-75
2022/11/10 06:34:02;;;;;;;131.23;43.92;;;10.20;99.90;;;;;;5079195;28;20419;-75
2022/11/10 06:36:47;;;;;;;104.90;37.45;;;10.30;99.90;;;;;;5086986;28;20150;-75
2022/11/10 06:39:33;;;;;;;98.95;32.17;;;10.30;99.90;;;;;;5087678;28;20082;-75
2022/11/10 06:42:18;;;;;;;88.60;28.50;;;10.30;99.90;;;;;;5080311;28;20406;-75
2022/11/10 06:45:04;;;;;;;98.00;33.50;;;10.30;99.90;;;;;;5076789;28;20261;-76
2022/11/10 06:48:00;;;;;;;95.32;30.83;;;10.30;99.90;;;;;;5080033;28;20056;-76
2022/11/10 06:50:46;;;;;;;90.88;28.85;;;10.40;99.90;;;;;;5080169;28;20051;-76
2022/11/10 06:53:31;;;;;;;101.32;29.25;;;10.30;99.90;;;;;;5078589;28;20047;-76
2022/11/10 06:56:17;;;;;;;83.95;27.63;;;10.40;99.90;;;;;;5082846;28;20093;-76
2022/11/10 06:59:03;;;;;;;74.35;27.30;;;10.40;99.90;;;;;;5079111;28;20060;-76
2022/11/10 07:01:49;;;;;;;71.90;26.42;;;10.40;99.90;;;;;;5078337;28;20054;-77
2022/11/10 07:04:35;;;;;;;77.63;24.35;;;10.40;99.90;;;;;;5080620;28;20039;-77
2022/11/10 07:07:21;;;;;;;79.70;25.33;;;10.50;99.90;;;;;;5079011;28;20127;-77
2022/11/10 07:10:06;;;;;;;70.43;25.10;;;10.50;99.90;;;;;;5078329;28;20063;-77
2022/11/10 07:12:57;;;;;;;72.30;25.27;;;10.50;99.90;;;;;;5082268;28;20513;-77
2022/11/10 07:15:42;;;;;;;70.28;24.40;;;10.60;99.90;;;;;;5083601;28;20064;-78
2022/11/10 07:18:28;;;;;;;64.85;22.48;;;10.60;99.90;;;;;;5083202;28;20617;-77
2022/11/10 07:21:14;;;;;;;66.68;25.13;;;10.60;99.90;;;;;;5075924;28;20054;-77
2022/11/10 07:23:59;;;;;;;66.82;22.27;;;10.60;99.90;;;;;;5082274;28;20055;-77
2022/11/10 07:26:45;;;;;;;69.60;24.85;;;10.70;99.90;;;;;;5077060;28;20133;-78
2022/11/10 07:29:30;;;;;;;63.17;22.50;;;10.70;99.90;;;;;;5079571;28;20043;-78
2022/11/10 07:32:16;;;;;;;65.80;22.55;;;10.70;99.90;;;;;;5075834;28;20039;-77
2022/11/10 07:35:01;;;;;;;54.08;21.17;;;10.80;99.90;;;;;;5079909;28;20529;-78
2022/11/10 07:37:47;;;;;;;59.05;21.17;;;10.80;99.90;;;;;;5082536;28;20052;-78
2022/11/10 07:40:33;;;;;;;45.80;18.95;;;10.80;99.90;;;;;;5082401;28;20051;-78
2022/11/10 07:43:20;;;;;;;47.90;19.08;;;10.80;99.90;;;;;;5078303;28;20059;-78
2022/11/10 07:46:06;;;;;;;45.28;17.90;;;10.90;99.90;;;;;;5079793;28;20121;-78
2022/11/10 07:48:52;;;;;;;47.13;18.40;;;10.90;99.90;;;;;;5083019;28;20052;-78
2022/11/10 07:51:38;;;;;;;47.80;18.30;;;10.90;99.90;;;;;;5076673;28;20058;-78
2022/11/10 07:54:23;;;;;;;44.33;16.70;;;11.00;99.90;;;;;;5076248;28;20055;-78
2022/11/10 07:57:08;;;;;;;49.25;17.27;;;11.00;99.90;;;;;;5079413;28;20055;-78
2022/11/10 07:59:54;;;;;;;45.42;17.52;;;11.00;99.90;;;;;;5076632;28;20414;-78
2022/11/10 08:02:42;;;;;;;51.85;19.52;;;11.10;99.90;;;;;;5081812;28;20056;-77
2022/11/10 08:05:28;;;;;;;50.63;17.52;;;11.10;99.90;;;;;;5081200;28;20124;-78
2022/11/10 08:08:14;;;;;;;44.42;17.23;;;11.00;99.90;;;;;;5080065;28;20048;-78
2022/11/10 08:10:59;;;;;;;45.13;17.70;;;11.10;99.90;;;;;;5079535;28;20055;-77
2022/11/10 08:13:45;;;;;;;48.28;18.52;;;11.10;99.90;;;;;;5079455;28;20063;-77
2022/11/10 08:16:31;;;;;;;45.97;17.65;;;11.10;99.90;;;;;;5074217;28;20113;-77
2022/11/10 08:19:16;;;;;;;44.00;17.73;;;11.20;99.90;;;;;;5083801;28;20050;-77
2022/11/10 08:22:02;;;;;;;37.05;15.13;;;11.20;99.90;;;;;;5082524;28;20050;-77
2022/11/10 08:24:47;;;;;;;39.15;15.02;;;11.20;99.90;;;;;;5082852;28;20055;-77
2022/11/10 08:27:33;;;;;;;39.65;15.43;;;11.20;99.90;;;;;;5078804;28;20840;-77
2022/11/10 08:30:18;;;;;;;37.58;15.05;;;11.20;99.90;;;;;;5081549;28;20394;-77
2022/11/10 08:33:06;;;;;;;34.22;13.85;;;11.20;99.90;;;;;;5082157;28;20177;-77
2022/11/10 08:35:52;;;;;;;40.58;15.68;;;11.20;99.90;;;;;;5087060;28;20058;-78
2022/11/10 08:38:38;;;;;;;40.53;16.25;;;11.20;99.90;;;;;;5083189;28;20045;-78
2022/11/10 08:41:24;;;;;;;39.20;15.05;;;11.20;99.90;;;;;;5077568;28;20055;-77
2022/11/10 08:44:11;;;;;;;43.90;16.35;;;11.20;99.90;;;;;;5081340;28;20117;-77
2022/11/10 08:47:01;;;;;;;48.80;17.05;;;11.30;99.90;;;;;;5079611;28;20129;-77
2022/11/10 08:49:46;;;;;;;53.55;18.83;;;11.30;99.90;;;;;;5082053;28;20055;-78
2022/11/10 08:52:32;;;;;;;48.03;17.85;;;11.30;99.90;;;;;;5078210;28;20047;-77
2022/11/10 08:55:19;;;;;;;47.28;16.17;;;11.30;99.90;;;;;;5075619;28;20089;-77
2022/11/10 08:58:07;;;;;;;45.80;16.00;;;11.30;99.90;;;;;;5076612;28;20047;-77
2022/11/10 09:00:53;;;;;;;49.15;17.40;;;11.30;99.90;;;;;;5072887;28;20063;-78
2022/11/10 09:03:39;;;;;;;49.65;18.17;;;11.30;99.90;;;;;;5080542;28;20137;-77
2022/11/10 09:06:24;;;;;;;54.85;20.75;;;11.30;99.90;;;;;;5079315;28;20121;-77
2022/11/10 09:09:10;;;;;;;43.72;17.85;;;11.30;99.90;;;;;;5076122;28;20170;-77
2022/11/10 09:11:55;;;;;;;44.70;15.57;;;11.30;99.90;;;;;;5081979;28;20608;-77
2022/11/10 09:14:41;;;;;;;48.45;17.17;;;11.30;99.90;;;;;;5077497;28;20203;-77
2022/11/10 09:17:27;;;;;;;45.05;18.08;;;11.40;99.90;;;;;;5073862;28;20056;-78
2022/11/10 09:20:12;;;;;;;46.47;17.63;;;11.40;99.90;;;;;;5076451;28;21348;-78
2022/11/10 09:23:06;;;;;;;46.50;16.73;;;11.40;99.90;;;;;;5075129;28;21376;-77
2022/11/10 09:25:54;;;;;;;49.20;17.95;;;11.40;99.90;;;;;;5081217;28;20050;-78
2022/11/10 09:28:40;;;;;;;51.60;19.98;;;11.40;99.90;;;;;;5082437;28;20090;-78
2022/11/10 09:31:25;;;;;;;45.10;16.83;;;11.40;99.90;;;;;;5082272;28;20051;-78
2022/11/10 09:34:11;;;;;;;41.17;15.95;;;11.40;99.90;;;;;;5078058;28;20418;-78
2022/11/10 09:36:57;;;;;;;48.10;16.92;;;11.40;99.90;;;;;;5087023;28;20047;-78
2022/11/10 09:39:43;;;;;;;43.33;17.00;;;11.40;99.90;;;;;;5076918;28;20075;-77
2022/11/10 09:42:40;;;;;;;45.78;16.15;;;11.40;99.90;;;;;;5079969;28;20115;-77
2022/11/10 09:45:29;;;;;;;37.72;14.43;;;11.50;99.90;;;;;;5085057;28;20517;-78
2022/11/10 09:48:26;;;;;;;42.03;17.02;;;11.60;99.90;;;;;;5087206;28;20052;-78
2022/11/10 09:51:17;;;;;;;45.17;16.05;;;11.70;99.90;;;;;;5083534;28;20128;-77
2022/11/10 09:54:14;;;;;;;46.22;15.85;;;11.90;99.90;;;;;;5084912;28;20174;-77
2022/11/10 09:57:03;;;;;;;43.42;15.98;;;12.00;99.90;;;;;;5087005;28;20093;-77
2022/11/10 09:59:49;;;;;;;38.40;15.93;;;12.00;99.90;;;;;;5076145;28;20521;-78
2022/11/10 10:02:50;;;;;;;43.75;17.80;;;12.10;99.90;;;;;;5078457;28;20059;-77
2022/11/10 10:06:07;;;;;;;43.55;17.20;;;12.10;99.90;;;;;;5086132;28;20093;-77
2022/11/10 10:09:01;;;;;;;46.00;19.88;;;12.10;99.90;;;;;;5082844;28;20115;-77
2022/11/10 10:12:16;;;;;;;46.47;18.15;;;12.10;99.90;;;;;;5080134;28;20048;-78
2022/11/10 10:15:19;;;;;;;41.08;16.02;;;12.10;99.90;;;;;;5083638;28;20091;-78
2022/11/10 10:18:49;;;;;;;40.40;16.40;;;12.10;99.90;;;;;;5078564;28;20055;-78
2022/11/10 10:21:44;;;;;;;41.55;17.48;;;12.20;99.90;;;;;;5084268;28;20044;-78
2022/11/10 10:24:31;;;;;;;44.20;17.17;;;12.20;99.90;;;;;;5079906;28;20409;-78
2022/11/10 10:27:22;;;;;;;40.25;15.50;;;12.20;99.90;;;;;;5082992;28;20402;-78
2022/11/10 10:30:16;;;;;;;43.20;18.35;;;12.30;99.90;;;;;;5089832;28;20117;-78
2022/11/10 10:33:18;;;;;;;42.97;16.50;;;12.40;99.90;;;;;;5081582;28;20073;-77
2022/11/10 10:36:14;;;;;;;42.58;17.75;;;12.40;99.90;;;;;;5073472;28;20051;-77
2022/11/10 10:39:04;;;;;;;39.05;17.17;;;12.50;99.90;;;;;;5083840;28;20059;-78
2022/11/10 10:41:49;;;;;;;42.17;16.85;;;12.50;99.90;;;;;;5081169;28;20190;-77
2022/11/10 10:44:35;;;;;;;46.55;18.98;;;12.50;99.90;;;;;;5081315;28;20055;-77
2022/11/10 10:47:36;;;;;;;42.72;18.70;;;12.70;99.90;;;;;;5075554;28;20048;-77
2022/11/10 10:50:31;;;;;;;44.70;18.88;;;12.70;99.90;;;;;;5081403;28;20094;-78
2022/11/10 10:53:20;;;;;;;46.45;19.60;;;12.70;99.90;;;;;;5080939;28;20518;-78
2022/11/10 10:56:23;;;;;;;42.72;17.85;;;12.80;99.90;;;;;;5078513;28;20562;-78
2022/11/10 10:59:19;;;;;;;47.22;19.50;;;12.80;99.90;;;;;;5090900;28;20060;-77
2022/11/10 11:02:29;;;;;;;49.58;18.63;;;12.80;99.90;;;;;;5077802;28;20134;-77
2022/11/10 11:05:17;;;;;;;43.22;16.83;;;12.90;99.90;;;;;;5079307;28;20043;-77
2022/11/10 11:08:03;;;;;;;49.60;19.63;;;13.00;99.90;;;;;;5081088;28;20402;-77
2022/11/10 11:10:49;;;;;;;44.08;17.85;;;13.00;99.90;;;;;;5082084;28;20129;-77
2022/11/10 11:13:34;;;;;;;43.55;16.60;;;13.00;99.90;;;;;;5076201;28;20055;-77
2022/11/10 11:16:20;;;;;;;48.80;19.05;;;13.10;99.90;;;;;;5085561;28;20046;-77
2022/11/10 11:19:07;;;;;;;44.90;18.05;;;13.10;99.90;;;;;;5073612;28;20097;-77
2022/11/10 11:22:22;;;;;;;45.08;18.30;;;13.40;99.90;;;;;;5087399;28;20175;-77
2022/11/10 11:25:30;;;;;;;46.25;17.98;;;13.60;99.90;;;;;;5083514;28;20079;-78
2022/11/10 11:28:28;;;;;;;43.72;18.08;;;13.80;99.90;;;;;;5083461;28;20098;-77
2022/11/10 11:31:29;;;;;;;41.60;16.13;;;13.90;99.90;;;;;;5079459;28;20148;-78
2022/11/10 11:34:18;;;;;;;44.42;18.40;;;13.80;99.90;;;;;;5077448;28;20166;-78
2022/11/10 11:37:03;;;;;;;36.80;15.85;;;13.70;99.90;;;;;;5080027;28;20438;-78
2022/11/10 11:40:13;;;;;;;45.38;16.45;;;13.60;99.90;;;;;;5081343;28;20051;-78
2022/11/10 11:43:25;;;;;;;64.70;27.58;;;13.50;99.90;;;;;;5082484;28;20063;-78
2022/11/10 11:46:23;;;;;;;49.10;23.02;;;13.50;99.90;;;;;;5078115;28;20047;-77
2022/11/10 11:49:47;;;;;;;45.20;19.85;;;13.50;99.90;;;;;;5080532;28;20046;-77
2022/11/10 11:52:35;;;;;;;42.53;17.65;;;13.40;99.90;;;;;;5077804;28;20093;-78
2022/11/10 11:56:04;;;;;;;48.17;18.15;;;13.40;99.90;;;;;;5078216;28;20055;-78
2022/11/10 11:59:04;;;;;;;44.28;19.67;;;13.30;99.90;;;;;;5088712;28;20052;-77
2022/11/10 12:02:02;;;;;;;44.47;17.42;;;13.30;99.90;;;;;;5081552;28;20075;-78
2022/11/10 12:05:30;;;;;;;46.92;19.13;;;13.30;99.90;;;;;;5081916;28;22697;-78
2022/11/10 12:08:29;;;;;;;49.30;21.58;;;13.20;99.90;;;;;;5082044;28;20067;-78
2022/11/10 12:11:23;;;;;;;50.95;24.85;;;13.20;99.90;;;;;;5082270;28;20047;-78
2022/11/10 12:14:29;;;;;;;47.05;22.27;;;13.10;99.90;;;;;;5075269;28;20051;-78
2022/11/10 12:17:25;;;;;;;49.00;21.10;;;13.10;99.90;;;;;;5074646;28;20047;-78
2022/11/10 12:20:30;;;;;;;47.63;20.17;;;13.00;99.90;;;;;;5084291;28;20058;-78
2022/11/10 12:23:53;;;;;;;52.70;22.67;;;12.90;99.90;;;;;;5079066;28;20081;-78
2022/11/10 12:26:58;;;;;;;51.78;22.75;;;12.90;99.90;;;;;;5081751;28;20046;-77
2022/11/10 12:29:55;;;;;;;44.35;19.52;;;12.90;99.90;;;;;;5078453;28;20146;-78
2022/11/10 12:32:55;;;;;;;43.33;19.10;;;12.80;99.90;;;;;;5077830;28;20054;-78
2022/11/10 12:35:44;;;;;;;45.00;19.10;;;12.80;99.90;;;;;;5079303;28;20097;-78
2022/11/10 12:38:39;;;;;;;40.70;17.30;;;12.80;99.90;;;;;;5084460;28;20050;-78
2022/11/10 12:41:28;;;;;;;43.05;15.85;;;12.80;99.90;;;;;;5083874;28;20051;-77
2022/11/10 12:44:44;;;;;;;42.55;17.27;;;12.80;99.90;;;;;;5078836;28;20059;-77
2022/11/10 12:47:35;;;;;;;38.67;16.83;;;12.80;99.90;;;;;;5082076;28;20126;-77
2022/11/10 12:50:37;;;;;;;42.58;16.58;;;12.70;99.90;;;;;;5075966;28;21781;-78
2022/11/10 12:53:27;;;;;;;39.97;16.60;;;12.70;99.90;;;;;;5073340;28;20166;-78
2022/11/10 12:56:22;;;;;;;40.22;16.52;;;12.60;99.90;;;;;;5081660;28;20109;-77
2022/11/10 12:59:21;;;;;;;45.33;16.42;;;12.60;99.90;;;;;;5081188;28;20047;-77
2022/11/10 13:02:16;;;;;;;39.45;17.55;;;12.60;99.90;;;;;;5082584;28;21968;-77
2022/11/10 13:05:24;;;;;;;41.90;17.40;;;12.60;99.90;;;;;;5077433;28;20674;-77
2022/11/10 13:08:31;;;;;;;45.08;17.85;;;12.60;99.90;;;;;;5080037;28;20047;-78
2022/11/10 13:11:20;;;;;;;47.78;19.70;;;12.60;99.90;;;;;;5089363;28;20580;-78
2022/11/10 13:14:28;;;;;;;45.72;18.95;;;12.50;99.90;;;;;;5087922;28;20043;-77
2022/11/10 13:17:46;;;;;;;41.08;17.90;;;12.50;99.90;;;;;;5084633;28;20118;-78
2022/11/10 13:20:37;;;;;;;40.28;15.98;;;12.50;99.90;;;;;;5087266;28;20137;-78
2022/11/10 13:23:30;;;;;;;45.92;16.73;;;12.40;99.90;;;;;;5084189;28;20047;-78
2022/11/10 13:26:38;;;;;;;42.53;16.05;;;12.40;99.90;;;;;;5084261;28;20044;-78
2022/11/10 13:29:33;;;;;;;39.95;16.13;;;12.30;99.90;;;;;;5084225;28;20040;-78
2022/11/10 13:32:31;;;;;;;39.88;16.02;;;12.30;99.90;;;;;;5080894;28;20494;-78
2022/11/10 13:35:28;;;;;;;40.80;16.20;;;12.30;99.90;;;;;;5087450;28;20067;-78
2022/11/10 13:38:34;;;;;;;44.67;17.48;;;12.30;99.90;;;;;;5084115;28;20040;-78
2022/11/10 13:41:23;;;;;;;40.80;17.55;;;12.30;99.90;;;;;;5077329;28;20043;-78
2022/11/10 13:44:33;;;;;;;41.70;16.95;;;12.20;99.90;;;;;;5083911;28;20067;-77
2022/11/10 13:47:53;;;;;;;44.80;21.52;;;12.20;99.90;;;;;;5083358;28;20070;-77
2022/11/10 13:51:05;;;;;;;57.10;25.48;;;12.20;99.90;;;;;;5092371;28;20051;-77
2022/11/10 13:54:21;;;;;;;58.40;23.90;;;12.20;99.90;;;;;;5094948;28;20090;-77
2022/11/10 13:57:22;;;;;;;56.00;21.15;;;12.10;99.90;;;;;;5079218;28;20043;-77
2022/11/10 14:00:15;;;;;;;48.45;21.92;;;12.10;99.90;;;;;;5081055;28;20063;-78
2022/11/10 14:03:03;;;;;;;52.25;24.50;;;12.10;99.90;;;;;;5088039;28;20629;-77
2022/11/10 14:06:03;;;;;;;47.55;18.67;;;12.00;99.90;;;;;;5082676;28;20043;-78
2022/11/10 14:09:12;;;;;;;57.35;20.85;;;12.00;99.90;;;;;;5086190;28;20510;-77
2022/11/10 14:12:36;;;;;;;51.35;20.92;;;12.00;99.90;;;;;;5087148;28;20051;-77
2022/11/10 14:15:23;;;;;;;;;;;12.00;99.90;;;;;;5080667;28;20046;-77
2022/11/10 14:18:25;;;;;;;56.38;21.27;;;12.00;99.90;;;;;;5087600;28;20289;-77
2022/11/10 14:21:21;;;;;;;54.75;20.75;;;12.00;99.90;;;;;;5081409;28;20047;-77
2022/11/10 14:24:33;;;;;;;46.72;19.30;;;12.00;99.90;;;;;;5079442;28;20059;-77
2022/11/10 14:27:29;;;;;;;53.45;21.23;;;12.00;99.90;;;;;;5079906;28;20393;-77
2022/11/10 14:30:30;;;;;;;46.53;18.83;;;11.90;99.90;;;;;;5085287;28;20042;-77
2022/11/10 14:33:15;;;;;;;51.80;19.45;;;11.90;99.90;;;;;;5087921;28;20052;-77
2022/11/10 14:36:03;;;;;;;51.30;20.05;;;11.90;99.90;;;;;;5082370;28;20513;-77